createdAt,value
2023-12-17T00:00:05.675Z,5.82
2023-12-17T00:02:32.483Z,6.40
2023-12-17T00:04:59.275Z,6.03
2023-12-17T00:07:26.195Z,5.63
2023-12-17T00:09:52.940Z,6.95
2023-12-17T00:12:19.881Z,6.93
2023-12-17T00:14:47.057Z,6.65
2023-12-17T00:17:13.978Z,7.82
2023-12-17T00:19:40.772Z,7.07
2023-12-17T00:22:07.584Z,6.85
2023-12-17T00:24:34.319Z,7.07
2023-12-17T00:27:01.128Z,6.63
2023-12-17T00:29:27.918Z,5.93
2023-12-17T00:32:00.710Z,6.95
2023-12-17T00:34:28.707Z,5.93
2023-12-17T00:36:55.787Z,5.78
2023-12-17T00:39:22.678Z,5.53
2023-12-17T00:41:49.666Z,5.32
2023-12-17T00:44:16.454Z,5.80
2023-12-17T00:46:43.177Z,6.60
2023-12-17T00:49:10.228Z,7.93
2023-12-17T00:51:37.076Z,7.30
2023-12-17T00:54:04.052Z,6.15
2023-12-17T00:56:31.176Z,6.05
2023-12-17T00:58:58.008Z,6.47
2023-12-17T01:01:25.973Z,6.40
2023-12-17T01:03:52.742Z,6.38
2023-12-17T01:06:19.625Z,5.65
2023-12-17T01:08:46.414Z,6.65
2023-12-17T01:11:13.248Z,8.35
2023-12-17T01:13:40.536Z,6.70
2023-12-17T01:16:07.734Z,7.13
2023-12-17T01:18:36.834Z,7.70
2023-12-17T01:21:04.390Z,6.70
2023-12-17T01:23:31.161Z,6.03
2023-12-17T01:25:57.990Z,6.05
2023-12-17T01:28:24.896Z,6.30
2023-12-17T01:30:51.802Z,6.78
2023-12-17T01:33:18.797Z,7.32
2023-12-17T01:35:45.688Z,6.22
2023-12-17T01:38:12.707Z,5.70
2023-12-17T01:40:40.512Z,7.75
2023-12-17T01:43:10.636Z,8.05
2023-12-17T01:45:37.804Z,7.72
2023-12-17T01:48:05.256Z,8.23
2023-12-17T01:50:32.266Z,7.07
2023-12-17T01:52:59.405Z,6.93
2023-12-17T01:55:27.801Z,6.10
2023-12-17T01:57:54.640Z,6.80
2023-12-17T02:00:21.712Z,7.10
2023-12-17T02:02:48.934Z,7.40
2023-12-17T02:05:16.305Z,6.90
2023-12-17T02:07:43.380Z,6.88
2023-12-17T02:10:10.432Z,6.93
2023-12-17T02:12:37.224Z,6.43
2023-12-17T02:15:04.258Z,6.43
2023-12-17T02:17:32.745Z,7.63
2023-12-17T02:19:59.970Z,7.90
2023-12-17T02:22:27.763Z,7.85
2023-12-17T02:24:55.093Z,7.85
2023-12-17T02:27:23.881Z,7.63
2023-12-17T02:29:51.901Z,6.70
2023-12-17T02:32:21.839Z,7.13
2023-12-17T02:34:49.332Z,5.80
2023-12-17T02:37:16.869Z,5.88
2023-12-17T02:39:43.788Z,6.78
2023-12-17T02:42:10.845Z,5.97
2023-12-17T02:44:37.686Z,6.13
2023-12-17T02:47:04.795Z,6.57
2023-12-17T02:49:33.265Z,6.15
2023-12-17T02:52:00.180Z,5.95
2023-12-17T02:54:27.022Z,5.80
2023-12-17T02:56:53.782Z,7.15
2023-12-17T02:59:20.718Z,6.45
2023-12-17T03:01:47.408Z,5.57
2023-12-17T03:04:14.766Z,5.15
2023-12-17T03:06:41.580Z,5.35
2023-12-17T03:09:08.352Z,6.47
2023-12-17T03:11:35.167Z,6.68
2023-12-17T03:14:01.936Z,6.18
2023-12-17T03:16:29.773Z,6.53
2023-12-17T03:18:57.340Z,7.03
2023-12-17T03:21:30.286Z,6.97
2023-12-17T03:23:57.137Z,6.55
2023-12-17T03:26:23.993Z,6.43
2023-12-17T03:28:50.747Z,5.90
2023-12-17T03:31:17.835Z,5.70
2023-12-17T03:33:46.062Z,5.50
2023-12-17T03:36:17.110Z,5.22
2023-12-17T03:38:45.747Z,6.53
2023-12-17T03:41:22.415Z,7.45
2023-12-17T03:43:54.763Z,7.30
2023-12-17T03:46:23.091Z,7.20
2023-12-17T03:48:50.755Z,7.60
2023-12-17T03:51:18.511Z,6.40
2023-12-17T03:53:45.528Z,5.47
2023-12-17T03:56:14.468Z,5.57
2023-12-17T03:58:41.371Z,4.40
2023-12-17T04:01:09.212Z,5.20
2023-12-17T04:03:37.240Z,5.22
2023-12-17T04:06:06.354Z,5.95
2023-12-17T04:08:33.165Z,7.32
2023-12-17T04:10:59.865Z,6.05
2023-12-17T04:13:26.752Z,5.07
2023-12-17T04:15:53.491Z,5.82
2023-12-17T04:18:20.340Z,5.93
2023-12-17T04:20:47.213Z,5.32
2023-12-17T04:23:13.925Z,5.45
2023-12-17T04:25:40.620Z,5.30
2023-12-17T04:28:07.305Z,5.63
2023-12-17T04:30:34.094Z,4.63
2023-12-17T04:33:01.120Z,6.82
2023-12-17T04:35:28.042Z,6.22
2023-12-17T04:37:54.847Z,5.68
2023-12-17T04:40:21.561Z,4.07
2023-12-17T04:42:48.268Z,5.47
2023-12-17T04:45:15.058Z,4.50
2023-12-17T04:47:42.023Z,4.32
2023-12-17T04:50:09.253Z,5.47
2023-12-17T04:52:36.783Z,6.15
2023-12-17T04:55:04.620Z,4.47
2023-12-17T04:57:31.408Z,5.85
2023-12-17T05:00:01.883Z,4.90
2023-12-17T05:02:28.643Z,5.28
2023-12-17T05:04:55.477Z,5.40
2023-12-17T05:07:22.215Z,6.63
2023-12-17T05:09:48.953Z,5.93
2023-12-17T05:12:15.778Z,7.03
2023-12-17T05:14:43.201Z,4.88
2023-12-17T05:17:10.033Z,4.72
2023-12-17T05:19:36.915Z,4.78
2023-12-17T05:22:03.857Z,4.93
2023-12-17T05:24:30.679Z,5.05
2023-12-17T05:26:57.465Z,4.40
2023-12-17T05:29:24.142Z,4.55
2023-12-17T05:31:50.887Z,4.75
2023-12-17T05:36:45.020Z,4.32
2023-12-17T05:39:11.770Z,5.15
2023-12-17T05:41:38.476Z,4.30
2023-12-17T05:44:05.180Z,4.57
2023-12-17T05:46:32.061Z,4.82
2023-12-17T05:48:58.860Z,5.45
2023-12-17T05:51:25.785Z,5.65
2023-12-17T05:53:52.558Z,4.93
2023-12-17T05:56:19.263Z,4.97
2023-12-17T05:58:46.310Z,4.85
2023-12-17T06:01:13.332Z,6.05
2023-12-17T06:03:40.572Z,4.85
2023-12-17T06:06:08.802Z,5.03
2023-12-17T06:08:35.692Z,4.10
2023-12-17T06:11:02.453Z,4.20
2023-12-17T06:13:29.208Z,4.30
2023-12-17T06:15:56.056Z,3.72
2023-12-17T06:18:22.927Z,4.03
2023-12-17T06:20:49.876Z,4.35
2023-12-17T06:23:16.650Z,5.38
2023-12-17T06:25:43.469Z,4.85
2023-12-17T06:28:10.171Z,3.35
2023-12-17T06:30:37.445Z,4.00
2023-12-17T06:33:04.357Z,4.25
2023-12-17T06:35:31.157Z,4.45
2023-12-17T06:37:57.842Z,3.67
2023-12-17T06:40:24.683Z,4.93
2023-12-17T06:42:51.405Z,4.28
2023-12-17T06:45:18.270Z,4.90
2023-12-17T06:47:46.742Z,4.63
2023-12-17T06:50:14.073Z,4.35
2023-12-17T06:52:41.046Z,4.03
2023-12-17T06:55:08.297Z,3.03
2023-12-17T06:57:35.152Z,2.85
2023-12-17T07:00:02.943Z,3.70
2023-12-17T07:02:30.024Z,3.97
2023-12-17T07:04:56.753Z,3.53
2023-12-17T07:07:23.593Z,4.78
2023-12-17T07:09:50.316Z,3.75
2023-12-17T07:12:17.066Z,4.13
2023-12-17T07:14:43.801Z,4.43
2023-12-17T07:17:10.492Z,3.53
2023-12-17T07:19:37.288Z,3.08
2023-12-17T07:22:04.242Z,3.53
2023-12-17T07:24:31.136Z,3.25
2023-12-17T07:26:57.960Z,3.72
2023-12-17T07:29:24.804Z,3.35
2023-12-17T07:31:51.489Z,3.33
2023-12-17T07:34:21.318Z,3.60
2023-12-17T07:36:48.829Z,3.75
2023-12-17T07:39:15.606Z,3.05
2023-12-17T07:41:42.332Z,2.83
2023-12-17T07:44:09.052Z,2.75
2023-12-17T07:46:35.744Z,3.25
2023-12-17T07:49:02.652Z,3.38
2023-12-17T07:51:29.484Z,2.67
2023-12-17T07:53:56.310Z,2.88
2023-12-17T07:56:23.774Z,3.20
2023-12-17T07:58:51.146Z,3.20
2023-12-17T08:01:20.636Z,3.30
2023-12-17T08:03:47.832Z,2.90
2023-12-17T08:06:15.277Z,2.65
2023-12-17T08:08:42.174Z,3.95
2023-12-17T08:11:13.216Z,3.13
2023-12-17T08:13:40.402Z,3.00
2023-12-17T08:16:07.659Z,2.97
2023-12-17T08:18:34.833Z,2.95
2023-12-17T08:21:02.699Z,3.42
2023-12-17T08:23:30.109Z,3.30
2023-12-17T08:25:56.906Z,3.17
2023-12-17T08:28:24.117Z,3.53
2023-12-17T08:30:51.499Z,3.05
2023-12-17T08:33:18.646Z,3.05
2023-12-17T08:35:46.609Z,2.95
2023-12-17T08:38:13.568Z,3.25
2023-12-17T08:40:41.670Z,2.53
2023-12-17T08:43:09.619Z,2.85
2023-12-17T08:45:36.870Z,2.38
2023-12-17T08:48:04.332Z,2.67
2023-12-17T08:50:31.568Z,3.35
2023-12-17T08:52:58.384Z,2.65
2023-12-17T08:55:25.636Z,2.80
2023-12-17T08:57:54.106Z,2.47
2023-12-17T09:00:21.214Z,2.97
2023-12-17T09:02:48.165Z,3.03
2023-12-17T09:05:15.075Z,3.20
2023-12-17T09:07:42.254Z,2.70
2023-12-17T09:10:09.582Z,3.22
2023-12-17T09:12:36.368Z,3.03
2023-12-17T09:15:03.396Z,3.00
2023-12-17T09:17:30.309Z,2.60
2023-12-17T09:19:57.146Z,2.38
2023-12-17T09:22:24.059Z,3.80
2023-12-17T09:24:51.060Z,5.13
2023-12-17T09:27:17.938Z,4.80
2023-12-17T09:29:44.711Z,3.60
2023-12-17T09:32:11.722Z,3.65
2023-12-17T09:34:38.545Z,3.05
2023-12-17T09:37:05.342Z,3.05
2023-12-17T09:39:32.224Z,3.30
2023-12-17T09:41:59.212Z,3.55
2023-12-17T09:44:27.827Z,4.40
2023-12-17T09:46:54.697Z,3.70
2023-12-17T09:49:22.110Z,3.15
2023-12-17T09:51:59.798Z,4.35
2023-12-17T09:54:26.853Z,3.45
2023-12-17T09:56:58.309Z,3.03
2023-12-17T09:59:25.135Z,2.95
2023-12-17T10:01:53.151Z,2.40
2023-12-17T10:04:25.449Z,2.97
2023-12-17T10:06:53.177Z,2.25
2023-12-17T10:09:20.398Z,2.80
2023-12-17T10:11:48.155Z,2.88
2023-12-17T10:14:22.601Z,2.75
2023-12-17T10:16:50.981Z,2.63
2023-12-17T10:19:18.816Z,2.78
2023-12-17T10:21:46.349Z,3.42
2023-12-17T10:24:13.653Z,3.40
2023-12-17T10:26:44.330Z,2.95
2023-12-17T10:29:15.315Z,2.97
2023-12-17T10:31:45.892Z,2.55
2023-12-17T10:34:20.706Z,3.13
2023-12-17T10:36:48.403Z,3.58
2023-12-17T10:39:16.436Z,2.70
2023-12-17T10:41:44.910Z,3.20
2023-12-17T10:44:15.504Z,2.80
2023-12-17T10:46:43.912Z,2.42
2023-12-17T10:49:14.741Z,3.25
2023-12-17T10:51:43.449Z,3.33
2023-12-17T10:54:12.567Z,3.05
2023-12-17T10:56:46.987Z,3.35
2023-12-17T10:59:26.671Z,3.50
2023-12-17T11:02:00.364Z,3.05
2023-12-17T11:04:27.908Z,3.13
2023-12-17T11:06:55.021Z,2.72
2023-12-17T11:09:21.868Z,3.22
2023-12-17T11:11:48.858Z,2.85
2023-12-17T11:14:15.718Z,3.63
2023-12-17T11:16:42.954Z,3.45
2023-12-17T11:19:13.743Z,4.03
2023-12-17T11:21:42.736Z,5.95
2023-12-17T11:24:09.919Z,5.82
2023-12-17T11:26:41.544Z,5.00
2023-12-17T11:29:35.265Z,5.38
2023-12-17T11:32:03.077Z,4.35
2023-12-17T11:34:31.797Z,4.47
2023-12-17T11:37:00.032Z,3.95
2023-12-17T11:39:31.400Z,2.85
2023-12-17T11:41:58.409Z,2.92
2023-12-17T11:44:25.210Z,3.40
2023-12-17T11:46:52.661Z,4.47
2023-12-17T11:49:26.957Z,4.30
2023-12-17T11:51:54.983Z,3.95
2023-12-17T11:54:22.678Z,3.67
2023-12-17T11:56:49.857Z,2.90
2023-12-17T11:59:31.324Z,3.55
2023-12-17T12:01:58.146Z,3.15
2023-12-17T12:04:25.845Z,3.47
2023-12-17T12:06:56.179Z,3.58
2023-12-17T12:09:23.002Z,3.20
2023-12-17T12:11:49.797Z,2.92
2023-12-17T12:14:16.584Z,3.22
2023-12-17T12:16:44.262Z,4.25
2023-12-17T12:19:17.282Z,3.78
2023-12-17T12:21:51.431Z,3.10
2023-12-17T12:24:22.641Z,2.85
2023-12-17T12:26:51.534Z,2.67
2023-12-17T12:29:18.386Z,2.55
2023-12-17T12:31:53.771Z,2.47
2023-12-17T12:34:20.883Z,2.58
2023-12-17T12:36:49.604Z,2.58
2023-12-17T12:39:19.249Z,2.25
2023-12-17T12:41:47.367Z,2.42
2023-12-17T12:44:15.622Z,3.35
2023-12-17T12:46:48.061Z,2.60
2023-12-17T12:49:15.036Z,2.80
2023-12-17T12:51:42.110Z,2.75
2023-12-17T12:54:10.523Z,3.22
2023-12-17T12:56:37.354Z,2.80
2023-12-17T12:59:04.082Z,2.97
2023-12-17T13:01:30.923Z,2.90
2023-12-17T13:03:59.718Z,3.03
2023-12-17T13:06:26.710Z,2.78
2023-12-17T13:08:53.697Z,3.25
2023-12-17T13:11:20.556Z,3.10
2023-12-17T13:13:47.367Z,2.90
2023-12-17T13:16:14.122Z,2.67
2023-12-17T13:18:40.987Z,3.13
2023-12-17T13:21:07.977Z,2.65
2023-12-17T13:23:34.828Z,3.03
2023-12-17T13:26:07.163Z,3.00
2023-12-17T13:28:37.620Z,2.42
2023-12-17T13:31:04.956Z,2.97
2023-12-17T13:33:32.127Z,2.92
2023-12-17T13:35:59.297Z,3.33
2023-12-17T13:38:27.302Z,3.05
2023-12-17T13:40:54.118Z,2.22
2023-12-17T13:43:20.848Z,3.35
2023-12-17T13:45:47.770Z,3.08
2023-12-17T13:48:16.824Z,8.77
2023-12-17T13:50:44.425Z,7.47
2023-12-17T13:53:11.970Z,4.35
2023-12-17T13:55:38.684Z,3.50
2023-12-17T13:58:06.258Z,2.40
2023-12-17T14:00:35.733Z,3.20
2023-12-17T14:03:02.626Z,1.88
2023-12-17T14:05:30.424Z,2.42
2023-12-17T14:07:59.360Z,2.25
2023-12-17T14:10:26.964Z,1.65
2023-12-17T14:12:58.882Z,2.08
2023-12-17T14:15:25.828Z,2.22
2023-12-17T14:17:52.914Z,2.33
2023-12-17T14:20:23.559Z,2.03
2023-12-17T14:22:53.565Z,2.22
2023-12-17T14:25:20.673Z,3.25
2023-12-17T14:27:48.130Z,3.47
2023-12-17T14:30:15.376Z,2.80
2023-12-17T14:32:42.373Z,2.60
2023-12-17T14:35:12.914Z,3.92
2023-12-17T14:37:39.642Z,5.43
2023-12-17T14:40:09.713Z,3.95
2023-12-17T14:42:37.510Z,3.15
2023-12-17T14:45:06.240Z,2.83
2023-12-17T14:47:33.588Z,2.47
2023-12-17T14:50:01.439Z,1.77
2023-12-17T14:52:28.212Z,2.10
2023-12-17T14:54:55.431Z,2.35
2023-12-17T14:57:22.469Z,1.77
2023-12-17T14:59:49.204Z,1.77
2023-12-17T15:02:16.002Z,2.13
2023-12-17T15:04:43.671Z,1.77
2023-12-17T15:07:12.367Z,1.83
2023-12-17T15:09:39.233Z,1.58
2023-12-17T15:12:07.731Z,1.50
2023-12-17T15:14:34.908Z,1.45
2023-12-17T15:17:01.651Z,1.85
2023-12-17T15:19:28.422Z,2.15
2023-12-17T15:21:55.168Z,2.40
2023-12-17T15:24:21.963Z,2.95
2023-12-17T15:26:48.775Z,2.08
2023-12-17T15:29:15.626Z,1.60
2023-12-17T15:31:44.223Z,2.17
2023-12-17T15:34:11.139Z,1.92
2023-12-17T15:36:41.946Z,1.83
2023-12-17T15:39:12.135Z,1.58
2023-12-17T15:41:39.462Z,1.73
2023-12-17T15:44:07.122Z,1.73
2023-12-17T15:46:34.006Z,2.08
2023-12-17T15:49:01.144Z,2.35
2023-12-17T15:51:29.205Z,3.25
2023-12-17T15:53:56.479Z,3.50
2023-12-17T15:56:23.724Z,2.85
2023-12-17T15:58:51.461Z,2.30
2023-12-17T16:01:19.182Z,2.55
2023-12-17T16:03:46.243Z,2.13
2023-12-17T16:06:13.567Z,2.40
2023-12-17T16:08:41.399Z,3.28
2023-12-17T16:11:08.666Z,2.22
2023-12-17T16:13:35.799Z,2.33
2023-12-17T16:16:02.592Z,2.08
2023-12-17T16:18:29.535Z,2.50
2023-12-17T16:20:57.000Z,3.60
2023-12-17T16:23:23.838Z,2.15
2023-12-17T16:25:50.698Z,2.00
2023-12-17T16:28:17.457Z,2.88
2023-12-17T16:30:45.457Z,1.95
2023-12-17T16:33:15.503Z,1.77
2023-12-17T16:35:43.696Z,2.13
2023-12-17T16:38:10.489Z,1.67
2023-12-17T16:40:37.277Z,2.08
2023-12-17T16:43:05.739Z,1.80
2023-12-17T16:45:32.629Z,2.28
2023-12-17T16:47:59.602Z,2.30
2023-12-17T16:50:26.705Z,1.90
2023-12-17T16:52:53.478Z,1.98
2023-12-17T16:55:20.439Z,1.92
2023-12-17T16:57:47.230Z,1.50
2023-12-17T17:00:14.301Z,1.50
2023-12-17T17:02:41.998Z,2.03
2023-12-17T17:05:09.436Z,2.10
2023-12-17T17:07:36.289Z,1.92
2023-12-17T17:10:03.596Z,3.05
2023-12-17T17:12:30.479Z,2.78
2023-12-17T17:14:57.502Z,2.08
2023-12-17T17:17:24.431Z,2.08
2023-12-17T17:19:51.253Z,1.77
2023-12-17T17:22:18.335Z,1.88
2023-12-17T17:24:45.214Z,2.40
2023-12-17T17:27:12.110Z,2.90
2023-12-17T17:29:38.840Z,3.28
2023-12-17T17:32:06.661Z,1.92
2023-12-17T17:34:33.965Z,2.53
2023-12-17T17:37:01.109Z,1.83
2023-12-17T17:39:30.790Z,1.35
2023-12-17T17:41:57.564Z,1.80
2023-12-17T17:44:24.286Z,1.73
2023-12-17T17:46:51.067Z,1.48
2023-12-17T17:49:22.403Z,1.38
2023-12-17T17:51:50.189Z,1.75
2023-12-17T17:54:17.738Z,1.27
2023-12-17T17:56:44.483Z,1.52
2023-12-17T17:59:11.607Z,1.88
2023-12-17T18:01:38.537Z,1.48
2023-12-17T18:04:05.424Z,1.73
2023-12-17T18:06:33.249Z,1.90
2023-12-17T18:09:00.217Z,1.90
2023-12-17T18:11:27.014Z,2.00
2023-12-17T18:13:55.397Z,2.30
2023-12-17T18:16:23.192Z,2.05
2023-12-17T18:18:53.032Z,1.90
2023-12-17T18:21:22.293Z,1.75
2023-12-17T18:23:50.151Z,1.27
2023-12-17T18:26:23.786Z,1.45
2023-12-17T18:28:50.987Z,1.30
2023-12-17T18:31:17.928Z,1.48
2023-12-17T18:33:45.107Z,2.03
2023-12-17T18:36:12.582Z,4.88
2023-12-17T18:38:46.114Z,5.55
2023-12-17T18:41:19.179Z,3.58
2023-12-17T18:43:46.793Z,3.22
2023-12-17T18:46:14.406Z,3.30
2023-12-17T18:48:45.055Z,3.78
2023-12-17T18:51:12.295Z,2.50
2023-12-17T18:53:40.333Z,1.85
2023-12-17T18:56:07.294Z,1.65
2023-12-17T18:58:34.467Z,1.42
2023-12-17T19:01:01.671Z,1.15
2023-12-17T19:03:28.609Z,1.38
2023-12-17T19:05:55.509Z,1.02
2023-12-17T19:08:22.404Z,1.40
2023-12-17T19:10:49.240Z,1.05
2023-12-17T19:13:15.955Z,1.20
2023-12-17T19:15:44.135Z,1.00
2023-12-17T19:18:11.404Z,1.10
2023-12-17T19:20:40.347Z,1.38
2023-12-17T19:23:07.297Z,1.10
2023-12-17T19:25:34.183Z,1.63
2023-12-17T19:28:00.949Z,1.50
2023-12-17T19:30:27.785Z,1.10
2023-12-17T19:32:55.123Z,1.58
2023-12-17T19:35:22.493Z,2.35
2023-12-17T19:37:49.535Z,3.47
2023-12-17T19:40:16.714Z,3.67
2023-12-17T19:42:43.662Z,4.07
2023-12-17T19:45:10.768Z,4.93
2023-12-17T19:47:37.635Z,7.40
2023-12-17T19:50:05.616Z,6.80
2023-12-17T19:52:32.509Z,5.28
2023-12-17T19:54:59.268Z,8.02
2023-12-17T19:57:26.364Z,5.78
2023-12-17T19:59:53.442Z,7.68
2023-12-17T20:02:21.234Z,5.95
2023-12-17T20:04:51.255Z,4.40
2023-12-17T20:07:21.291Z,3.00
2023-12-17T20:09:48.225Z,2.70
2023-12-17T20:12:15.197Z,1.60
2023-12-17T20:14:41.947Z,1.25
2023-12-17T20:17:08.723Z,1.10
2023-12-17T20:19:35.688Z,1.02
2023-12-17T20:22:02.516Z,1.08
2023-12-17T20:24:29.302Z,1.00
2023-12-17T20:26:56.218Z,1.30
2023-12-17T20:29:22.952Z,1.25
2023-12-17T20:31:49.828Z,1.27
2023-12-17T20:34:16.956Z,1.08
2023-12-17T20:36:45.709Z,1.00
2023-12-17T20:39:13.981Z,0.82
2023-12-17T20:41:40.998Z,0.90
2023-12-17T20:44:08.453Z,0.95
2023-12-17T20:46:35.239Z,1.52
2023-12-17T20:49:02.330Z,1.10
2023-12-17T20:51:30.237Z,1.63
2023-12-17T20:53:57.260Z,1.55
2023-12-17T20:56:24.128Z,1.60
2023-12-17T20:58:52.955Z,1.50
2023-12-17T21:01:19.810Z,1.05
2023-12-17T21:03:46.800Z,1.33
2023-12-17T21:06:19.473Z,1.05
2023-12-17T21:08:46.171Z,1.23
2023-12-17T21:11:12.910Z,1.80
2023-12-17T21:13:39.668Z,1.85
2023-12-17T21:16:07.074Z,1.40
2023-12-17T21:18:33.989Z,2.20
2023-12-17T21:21:01.810Z,1.52
2023-12-17T21:23:28.590Z,1.58
2023-12-17T21:25:55.332Z,1.63
2023-12-17T21:28:22.322Z,1.73
2023-12-17T21:30:49.166Z,1.42
2023-12-17T21:33:16.030Z,1.50
2023-12-17T21:35:42.828Z,1.35
2023-12-17T21:38:09.913Z,1.55
2023-12-17T21:40:36.890Z,1.27
2023-12-17T21:43:03.769Z,1.33
2023-12-17T21:45:30.561Z,1.42
2023-12-17T21:47:58.035Z,1.75
2023-12-17T21:50:25.833Z,1.23
2023-12-17T21:52:52.621Z,1.33
2023-12-17T21:55:19.362Z,1.25
2023-12-17T21:57:46.161Z,1.33
2023-12-17T22:00:18.083Z,1.52
2023-12-17T22:02:46.057Z,1.50
2023-12-17T22:05:13.128Z,1.45
2023-12-17T22:07:40.330Z,1.55
2023-12-17T22:10:08.062Z,1.65
2023-12-17T22:12:35.063Z,1.67
2023-12-17T22:15:03.104Z,1.33
2023-12-17T22:17:29.922Z,1.40
2023-12-17T22:19:56.694Z,1.58
2023-12-17T22:22:23.972Z,1.77
2023-12-17T22:24:50.747Z,1.70
2023-12-17T22:27:17.505Z,1.13
2023-12-17T22:29:44.382Z,1.55
2023-12-17T22:32:11.273Z,1.60
2023-12-17T22:34:38.073Z,2.38
2023-12-17T22:37:04.853Z,2.35
2023-12-17T22:39:31.620Z,2.20
2023-12-17T22:41:58.599Z,1.60
2023-12-17T22:44:25.911Z,2.17
2023-12-17T22:46:52.666Z,2.08
2023-12-17T22:49:19.427Z,1.60
2023-12-17T22:51:46.245Z,2.05
2023-12-17T22:54:13.158Z,2.53
2023-12-17T22:56:39.971Z,2.53
2023-12-17T22:59:07.589Z,1.80
2023-12-17T23:01:34.747Z,1.98
2023-12-17T23:04:01.623Z,2.25
2023-12-17T23:06:31.284Z,2.55
2023-12-17T23:08:58.185Z,2.33
2023-12-17T23:11:25.644Z,1.80
2023-12-17T23:13:55.229Z,1.70
2023-12-17T23:16:22.101Z,1.77
2023-12-17T23:18:48.858Z,1.42
2023-12-17T23:21:15.679Z,1.60
2023-12-17T23:23:42.413Z,1.50
2023-12-17T23:26:09.395Z,1.90
2023-12-17T23:28:36.132Z,2.55
2023-12-17T23:31:03.052Z,1.75
2023-12-17T23:33:29.968Z,1.92
2023-12-17T23:35:56.850Z,1.55
2023-12-17T23:38:23.561Z,1.92
2023-12-17T23:40:50.523Z,1.80
2023-12-17T23:43:17.281Z,1.80
2023-12-17T23:45:44.044Z,1.10
2023-12-17T23:48:12.380Z,1.63
2023-12-17T23:50:39.288Z,1.65
2023-12-17T23:53:06.016Z,1.83
2023-12-17T23:55:32.777Z,1.42
2023-12-17T23:57:59.555Z,1.88
